sensor_id;sensor_type;location;lat;lon;timestamp;pressure;altitude;pressure_sealevel;temperature;humidity
29417;BME280;28421;51.030;4.006;2023-12-20T00:01:01;101741.47;;;5.28;100.00
29417;BME280;28421;51.030;4.006;2023-12-20T00:03:27;101807.06;;;5.65;100.00
29417;BME280;28421;51.030;4.006;2023-12-20T00:05:52;101800.25;;;5.61;100.00
29417;BME280;28421;51.030;4.006;2023-12-20T00:08:18;101794.28;;;5.58;100.00
29417;BME280;28421;51.030;4.006;2023-12-20T00:10:44;101752.84;;;5.30;100.00
29417;BME280;28421;51.030;4.006;2023-12-20T00:13:10;101798.78;;;5.57;100.00
29417;BME280;28421;51.030;4.006;2023-12-20T00:15:36;101784.69;;;5.44;100.00
29417;BME280;28421;51.030;4.006;2023-12-20T00:18:01;101761.31;;;5.23;100.00
29417;BME280;28421;51.030;4.006;2023-12-20T00:20:27;101768.13;;;5.28;100.00
29417;BME280;28421;51.030;4.006;2023-12-20T00:22:57;101773.34;;;5.29;100.00
29417;BME280;28421;51.030;4.006;2023-12-20T00:25:26;101751.47;;;5.13;100.00
29417;BME280;28421;51.030;4.006;2023-12-20T00:27:51;101800.69;;;5.44;100.00
29417;BME280;28421;51.030;4.006;2023-12-20T00:30:17;101760.66;;;5.09;100.00
29417;BME280;28421;51.030;4.006;2023-12-20T00:32:43;101764.16;;;5.09;100.00
29417;BME280;28421;51.030;4.006;2023-12-20T00:35:15;101799.03;;;5.30;100.00
29417;BME280;28421;51.030;4.006;2023-12-20T00:37:41;101789.53;;;5.15;100.00
29417;BME280;28421;51.030;4.006;2023-12-20T00:40:07;101777.09;;;5.03;100.00
29417;BME280;28421;51.030;4.006;2023-12-20T00:42:33;101797.06;;;5.21;100.00
29417;BME280;28421;51.030;4.006;2023-12-20T00:44:59;101778.25;;;5.11;100.00
29417;BME280;28421;51.030;4.006;2023-12-20T00:47:25;101776.97;;;5.04;100.00
29417;BME280;28421;51.030;4.006;2023-12-20T00:49:50;101758.03;;;4.96;100.00
29417;BME280;28421;51.030;4.006;2023-12-20T00:52:16;101758.38;;;4.91;100.00
29417;BME280;28421;51.030;4.006;2023-12-20T00:54:43;101780.16;;;5.09;100.00
29417;BME280;28421;51.030;4.006;2023-12-20T00:57:08;101788.72;;;5.02;100.00
29417;BME280;28421;51.030;4.006;2023-12-20T00:59:35;101797.25;;;5.07;100.00
29417;BME280;28421;51.030;4.006;2023-12-20T01:02:00;101770.09;;;4.89;100.00
29417;BME280;28421;51.030;4.006;2023-12-20T01:04:26;101746.13;;;4.65;100.00
29417;BME280;28421;51.030;4.006;2023-12-20T01:06:52;101765.06;;;4.73;100.00
29417;BME280;28421;51.030;4.006;2023-12-20T01:09:18;101795.81;;;4.90;100.00
29417;BME280;28421;51.030;4.006;2023-12-20T01:11:44;101782.63;;;4.76;100.00
29417;BME280;28421;51.030;4.006;2023-12-20T01:14:09;101776.44;;;4.75;100.00
29417;BME280;28421;51.030;4.006;2023-12-20T01:16:35;101776.13;;;4.80;100.00
29417;BME280;28421;51.030;4.006;2023-12-20T01:19:00;101776.03;;;4.81;100.00
29417;BME280;28421;51.030;4.006;2023-12-20T01:21:26;101797.38;;;4.92;100.00
29417;BME280;28421;51.030;4.006;2023-12-20T01:23:52;101820.13;;;5.09;100.00
29417;BME280;28421;51.030;4.006;2023-12-20T01:26:17;101812.13;;;5.09;100.00
29417;BME280;28421;51.030;4.006;2023-12-20T01:28:43;101779.56;;;4.93;100.00
29417;BME280;28421;51.030;4.006;2023-12-20T01:31:08;101773.66;;;4.89;100.00
29417;BME280;28421;51.030;4.006;2023-12-20T01:33:33;101774.59;;;4.88;100.00
29417;BME280;28421;51.030;4.006;2023-12-20T01:35:59;101784.13;;;5.04;100.00
29417;BME280;28421;51.030;4.006;2023-12-20T01:38:25;101764.97;;;4.98;100.00
29417;BME280;28421;51.030;4.006;2023-12-20T01:40:50;101776.53;;;5.10;100.00
29417;BME280;28421;51.030;4.006;2023-12-20T01:43:16;101804.50;;;5.29;100.00
29417;BME280;28421;51.030;4.006;2023-12-20T01:45:42;101788.84;;;5.24;100.00
29417;BME280;28421;51.030;4.006;2023-12-20T01:48:08;101795.88;;;5.25;100.00
29417;BME280;28421;51.030;4.006;2023-12-20T01:50:36;101756.84;;;5.00;100.00
29417;BME280;28421;51.030;4.006;2023-12-20T01:53:03;101783.94;;;5.18;100.00
29417;BME280;28421;51.030;4.006;2023-12-20T01:55:33;101786.31;;;5.22;100.00
29417;BME280;28421;51.030;4.006;2023-12-20T01:58:00;101760.06;;;5.16;100.00
29417;BME280;28421;51.030;4.006;2023-12-20T02:00:27;101805.16;;;5.43;100.00
29417;BME280;28421;51.030;4.006;2023-12-20T02:02:54;101801.03;;;5.39;100.00
29417;BME280;28421;51.030;4.006;2023-12-20T02:05:22;101812.97;;;5.58;100.00
29417;BME280;28421;51.030;4.006;2023-12-20T02:07:48;101778.72;;;5.40;100.00
29417;BME280;28421;51.030;4.006;2023-12-20T02:10:15;101792.22;;;5.50;100.00
29417;BME280;28421;51.030;4.006;2023-12-20T02:12:41;101796.91;;;5.46;100.00
29417;BME280;28421;51.030;4.006;2023-12-20T02:15:07;101754.63;;;5.18;100.00
29417;BME280;28421;51.030;4.006;2023-12-20T02:17:32;101794.25;;;5.46;100.00
29417;BME280;28421;51.030;4.006;2023-12-20T02:19:58;101786.88;;;5.26;100.00
29417;BME280;28421;51.030;4.006;2023-12-20T02:22:23;101770.66;;;5.29;100.00
29417;BME280;28421;51.030;4.006;2023-12-20T02:24:49;101771.91;;;5.36;100.00
29417;BME280;28421;51.030;4.006;2023-12-20T02:27:15;101765.97;;;5.33;100.00
29417;BME280;28421;51.030;4.006;2023-12-20T02:29:40;101765.91;;;5.21;100.00
29417;BME280;28421;51.030;4.006;2023-12-20T02:32:06;101803.56;;;5.41;100.00
29417;BME280;28421;51.030;4.006;2023-12-20T02:34:31;101814.03;;;5.55;100.00
29417;BME280;28421;51.030;4.006;2023-12-20T02:36:57;101783.34;;;5.49;100.00
29417;BME280;28421;51.030;4.006;2023-12-20T02:39:23;101764.19;;;5.44;100.00
29417;BME280;28421;51.030;4.006;2023-12-20T02:41:48;101791.75;;;5.56;100.00
29417;BME280;28421;51.030;4.006;2023-12-20T02:44:14;101785.66;;;5.54;100.00
29417;BME280;28421;51.030;4.006;2023-12-20T02:46:39;101777.94;;;5.62;100.00
29417;BME280;28421;51.030;4.006;2023-12-20T02:49:06;101785.00;;;5.74;100.00
29417;BME280;28421;51.030;4.006;2023-12-20T02:51:31;101775.41;;;5.72;100.00
29417;BME280;28421;51.030;4.006;2023-12-20T02:53:57;101781.34;;;5.76;100.00
29417;BME280;28421;51.030;4.006;2023-12-20T02:56:22;101771.53;;;5.65;100.00
29417;BME280;28421;51.030;4.006;2023-12-20T02:58:48;101771.28;;;5.68;100.00
29417;BME280;28421;51.030;4.006;2023-12-20T03:01:13;101787.66;;;5.74;100.00
29417;BME280;28421;51.030;4.006;2023-12-20T03:03:39;101787.81;;;5.84;100.00
29417;BME280;28421;51.030;4.006;2023-12-20T03:06:05;101738.41;;;5.67;100.00
29417;BME280;28421;51.030;4.006;2023-12-20T03:08:30;101771.44;;;5.89;100.00
29417;BME280;28421;51.030;4.006;2023-12-20T03:10:56;101780.09;;;5.92;100.00
29417;BME280;28421;51.030;4.006;2023-12-20T03:13:21;101786.03;;;5.96;100.00
29417;BME280;28421;51.030;4.006;2023-12-20T03:15:47;101770.22;;;5.82;100.00
29417;BME280;28421;51.030;4.006;2023-12-20T03:18:13;101772.66;;;5.85;100.00
29417;BME280;28421;51.030;4.006;2023-12-20T03:20:38;101806.56;;;6.07;100.00
29417;BME280;28421;51.030;4.006;2023-12-20T03:23:04;101798.34;;;6.10;100.00
29417;BME280;28421;51.030;4.006;2023-12-20T03:25:29;101762.25;;;5.93;100.00
29417;BME280;28421;51.030;4.006;2023-12-20T03:27:55;101762.16;;;5.94;100.00
29417;BME280;28421;51.030;4.006;2023-12-20T03:30:20;101770.28;;;6.04;100.00
29417;BME280;28421;51.030;4.006;2023-12-20T03:32:46;101790.56;;;6.07;100.00
29417;BME280;28421;51.030;4.006;2023-12-20T03:35:12;101744.50;;;5.69;100.00
29417;BME280;28421;51.030;4.006;2023-12-20T03:37:37;101769.75;;;5.88;100.00
29417;BME280;28421;51.030;4.006;2023-12-20T03:40:03;101785.03;;;5.86;100.00
29417;BME280;28421;51.030;4.006;2023-12-20T03:42:29;101795.25;;;5.92;100.00
29417;BME280;28421;51.030;4.006;2023-12-20T03:44:54;101762.53;;;5.66;100.00
29417;BME280;28421;51.030;4.006;2023-12-20T03:47:20;101784.28;;;5.72;100.00
29417;BME280;28421;51.030;4.006;2023-12-20T03:49:45;101786.06;;;5.72;100.00
29417;BME280;28421;51.030;4.006;2023-12-20T03:52:11;101765.94;;;5.57;100.00
29417;BME280;28421;51.030;4.006;2023-12-20T03:54:37;101796.06;;;5.81;100.00
29417;BME280;28421;51.030;4.006;2023-12-20T03:57:03;101772.38;;;5.65;100.00
29417;BME280;28421;51.030;4.006;2023-12-20T03:59:28;101752.28;;;5.37;100.00
29417;BME280;28421;51.030;4.006;2023-12-20T04:01:54;101765.81;;;5.58;100.00
29417;BME280;28421;51.030;4.006;2023-12-20T04:04:19;101788.59;;;5.62;100.00
29417;BME280;28421;51.030;4.006;2023-12-20T04:06:45;101764.72;;;5.61;100.00
29417;BME280;28421;51.030;4.006;2023-12-20T04:09:10;101758.59;;;5.36;100.00
29417;BME280;28421;51.030;4.006;2023-12-20T04:11:36;101756.28;;;5.43;100.00
29417;BME280;28421;51.030;4.006;2023-12-20T04:14:02;101779.09;;;5.47;100.00
29417;BME280;28421;51.030;4.006;2023-12-20T04:16:27;101786.78;;;5.52;100.00
29417;BME280;28421;51.030;4.006;2023-12-20T04:18:53;101783.63;;;5.58;100.00
29417;BME280;28421;51.030;4.006;2023-12-20T04:21:18;101783.28;;;5.62;100.00
29417;BME280;28421;51.030;4.006;2023-12-20T04:23:44;101772.59;;;5.62;100.00
29417;BME280;28421;51.030;4.006;2023-12-20T04:26:10;101806.84;;;5.68;100.00
29417;BME280;28421;51.030;4.006;2023-12-20T04:28:35;101786.41;;;5.56;100.00
29417;BME280;28421;51.030;4.006;2023-12-20T04:31:01;101803.28;;;5.68;100.00
29417;BME280;28421;51.030;4.006;2023-12-20T04:33:26;101789.25;;;5.42;100.00
29417;BME280;28421;51.030;4.006;2023-12-20T04:35:52;101803.38;;;5.55;100.00
29417;BME280;28421;51.030;4.006;2023-12-20T04:38:17;101790.88;;;5.56;100.00
29417;BME280;28421;51.030;4.006;2023-12-20T04:40:43;101809.59;;;5.67;100.00
29417;BME280;28421;51.030;4.006;2023-12-20T04:43:08;101804.25;;;5.67;100.00
29417;BME280;28421;51.030;4.006;2023-12-20T04:45:34;101786.16;;;5.59;100.00
29417;BME280;28421;51.030;4.006;2023-12-20T04:48:01;101784.34;;;5.60;100.00
29417;BME280;28421;51.030;4.006;2023-12-20T04:50:27;101796.00;;;5.59;100.00
29417;BME280;28421;51.030;4.006;2023-12-20T04:52:53;101785.09;;;5.62;100.00
29417;BME280;28421;51.030;4.006;2023-12-20T04:55:18;101777.25;;;5.36;100.00
29417;BME280;28421;51.030;4.006;2023-12-20T04:57:44;101767.22;;;5.40;100.00
29417;BME280;28421;51.030;4.006;2023-12-20T05:00:09;101773.25;;;5.42;100.00
29417;BME280;28421;51.030;4.006;2023-12-20T05:02:36;101751.38;;;5.26;100.00
29417;BME280;28421;51.030;4.006;2023-12-20T05:05:02;101773.38;;;5.40;100.00
29417;BME280;28421;51.030;4.006;2023-12-20T05:07:27;101798.75;;;5.46;100.00
29417;BME280;28421;51.030;4.006;2023-12-20T05:09:53;101769.53;;;5.20;100.00
29417;BME280;28421;51.030;4.006;2023-12-20T05:12:19;101796.91;;;5.35;100.00
29417;BME280;28421;51.030;4.006;2023-12-20T05:14:46;101770.53;;;5.19;100.00
29417;BME280;28421;51.030;4.006;2023-12-20T05:17:11;101771.22;;;5.10;100.00
29417;BME280;28421;51.030;4.006;2023-12-20T05:19:37;101794.44;;;5.32;100.00
29417;BME280;28421;51.030;4.006;2023-12-20T05:22:03;101755.22;;;5.10;100.00
29417;BME280;28421;51.030;4.006;2023-12-20T05:24:28;101773.63;;;5.13;100.00
29417;BME280;28421;51.030;4.006;2023-12-20T05:26:54;101783.84;;;5.19;100.00
29417;BME280;28421;51.030;4.006;2023-12-20T05:29:20;101767.56;;;5.11;100.00
29417;BME280;28421;51.030;4.006;2023-12-20T05:31:45;101788.97;;;5.22;100.00
29417;BME280;28421;51.030;4.006;2023-12-20T05:34:11;101769.50;;;5.09;100.00
29417;BME280;28421;51.030;4.006;2023-12-20T05:36:36;101808.84;;;5.30;100.00
29417;BME280;28421;51.030;4.006;2023-12-20T05:39:03;101802.78;;;5.28;100.00
29417;BME280;28421;51.030;4.006;2023-12-20T05:41:33;101803.91;;;5.36;100.00
29417;BME280;28421;51.030;4.006;2023-12-20T05:43:58;101769.59;;;5.32;100.00
29417;BME280;28421;51.030;4.006;2023-12-20T05:46:24;101807.72;;;5.45;100.00
29417;BME280;28421;51.030;4.006;2023-12-20T05:48:50;101775.38;;;5.26;100.00
29417;BME280;28421;51.030;4.006;2023-12-20T05:51:17;101818.50;;;5.43;100.00
29417;BME280;28421;51.030;4.006;2023-12-20T05:53:43;101773.47;;;5.28;100.00
29417;BME280;28421;51.030;4.006;2023-12-20T05:56:09;101778.53;;;5.31;100.00
29417;BME280;28421;51.030;4.006;2023-12-20T05:58:35;101791.94;;;5.42;100.00
29417;BME280;28421;51.030;4.006;2023-12-20T06:01:02;101808.72;;;5.55;100.00
29417;BME280;28421;51.030;4.006;2023-12-20T06:03:28;101789.75;;;5.47;100.00
29417;BME280;28421;51.030;4.006;2023-12-20T06:05:54;101766.81;;;5.33;100.00
29417;BME280;28421;51.030;4.006;2023-12-20T06:08:19;101817.81;;;5.53;100.00
29417;BME280;28421;51.030;4.006;2023-12-20T06:10:45;101818.16;;;5.48;100.00
29417;BME280;28421;51.030;4.006;2023-12-20T06:13:10;101833.97;;;5.62;100.00
29417;BME280;28421;51.030;4.006;2023-12-20T06:15:38;101818.81;;;5.63;100.00
29417;BME280;28421;51.030;4.006;2023-12-20T06:18:03;101759.16;;;5.29;100.00
29417;BME280;28421;51.030;4.006;2023-12-20T06:20:29;101789.50;;;5.39;100.00
29417;BME280;28421;51.030;4.006;2023-12-20T06:22:54;101757.19;;;5.19;100.00
29417;BME280;28421;51.030;4.006;2023-12-20T06:25:20;101798.69;;;5.35;100.00
29417;BME280;28421;51.030;4.006;2023-12-20T06:27:45;101813.03;;;5.45;100.00
29417;BME280;28421;51.030;4.006;2023-12-20T06:30:11;101777.66;;;5.19;100.00
29417;BME280;28421;51.030;4.006;2023-12-20T06:32:37;101788.84;;;5.24;100.00
29417;BME280;28421;51.030;4.006;2023-12-20T06:35:04;101807.78;;;5.32;100.00
29417;BME280;28421;51.030;4.006;2023-12-20T06:37:30;101814.31;;;5.28;100.00
29417;BME280;28421;51.030;4.006;2023-12-20T06:39:55;101818.78;;;5.28;100.00
29417;BME280;28421;51.030;4.006;2023-12-20T06:42:23;101797.41;;;5.16;100.00
29417;BME280;28421;51.030;4.006;2023-12-20T06:44:48;101788.78;;;5.13;100.00
29417;BME280;28421;51.030;4.006;2023-12-20T06:47:14;101786.09;;;5.13;100.00
29417;BME280;28421;51.030;4.006;2023-12-20T06:49:40;101806.09;;;5.31;100.00
29417;BME280;28421;51.030;4.006;2023-12-20T06:52:06;101810.66;;;5.29;100.00
29417;BME280;28421;51.030;4.006;2023-12-20T06:54:31;101776.25;;;5.02;100.00
29417;BME280;28421;51.030;4.006;2023-12-20T06:56:56;101796.56;;;5.16;100.00
29417;BME280;28421;51.030;4.006;2023-12-20T06:59:22;101786.00;;;4.90;100.00
29417;BME280;28421;51.030;4.006;2023-12-20T07:01:48;101808.84;;;5.06;100.00
29417;BME280;28421;51.030;4.006;2023-12-20T07:04:14;101755.44;;;4.83;100.00
29417;BME280;28421;51.030;4.006;2023-12-20T07:06:39;101755.66;;;4.80;100.00
29417;BME280;28421;51.030;4.006;2023-12-20T07:09:05;101756.19;;;4.72;100.00
29417;BME280;28421;51.030;4.006;2023-12-20T07:11:31;101751.22;;;4.68;100.00
29417;BME280;28421;51.030;4.006;2023-12-20T07:13:57;101769.66;;;4.71;100.00
29417;BME280;28421;51.030;4.006;2023-12-20T07:16:22;101791.13;;;4.81;100.00
29417;BME280;28421;51.030;4.006;2023-12-20T07:18:48;101780.19;;;4.72;100.00
29417;BME280;28421;51.030;4.006;2023-12-20T07:21:13;101791.41;;;4.65;100.00
29417;BME280;28421;51.030;4.006;2023-12-20T07:23:38;101756.41;;;4.45;100.00
29417;BME280;28421;51.030;4.006;2023-12-20T07:26:04;101799.91;;;4.70;100.00
29417;BME280;28421;51.030;4.006;2023-12-20T07:28:29;101783.47;;;4.52;100.00
29417;BME280;28421;51.030;4.006;2023-12-20T07:30:55;101808.63;;;4.72;100.00
29417;BME280;28421;51.030;4.006;2023-12-20T07:33:20;101786.72;;;4.56;100.00
29417;BME280;28421;51.030;4.006;2023-12-20T07:35:47;101782.16;;;4.58;100.00
29417;BME280;28421;51.030;4.006;2023-12-20T07:38:12;101783.34;;;4.54;100.00
29417;BME280;28421;51.030;4.006;2023-12-20T07:40:37;101788.53;;;4.55;100.00
29417;BME280;28421;51.030;4.006;2023-12-20T07:43:04;101776.88;;;4.45;100.00
29417;BME280;28421;51.030;4.006;2023-12-20T07:45:29;101783.22;;;4.55;100.00
29417;BME280;28421;51.030;4.006;2023-12-20T07:47:55;101796.63;;;4.66;100.00
29417;BME280;28421;51.030;4.006;2023-12-20T07:50:20;101808.66;;;4.59;100.00
29417;BME280;28421;51.030;4.006;2023-12-20T07:52:46;101808.66;;;4.59;100.00
29417;BME280;28421;51.030;4.006;2023-12-20T07:55:11;101824.75;;;4.70;100.00
29417;BME280;28421;51.030;4.006;2023-12-20T07:57:37;101783.56;;;4.51;100.00
29417;BME280;28421;51.030;4.006;2023-12-20T08:00:03;101802.16;;;4.63;100.00
29417;BME280;28421;51.030;4.006;2023-12-20T08:02:29;101781.19;;;4.59;100.00
29417;BME280;28421;51.030;4.006;2023-12-20T08:04:55;101750.53;;;4.53;100.00
29417;BME280;28421;51.030;4.006;2023-12-20T08:07:20;101819.69;;;4.91;100.00
29417;BME280;28421;51.030;4.006;2023-12-20T08:09:46;101830.41;;;5.03;100.00
29417;BME280;28421;51.030;4.006;2023-12-20T08:12:11;101801.56;;;4.84;100.00
29417;BME280;28421;51.030;4.006;2023-12-20T08:14:37;101767.53;;;4.63;100.00
29417;BME280;28421;51.030;4.006;2023-12-20T08:17:03;101790.22;;;4.69;100.00
29417;BME280;28421;51.030;4.006;2023-12-20T08:19:28;101786.19;;;4.63;100.00
29417;BME280;28421;51.030;4.006;2023-12-20T08:21:54;101810.13;;;4.76;100.00
29417;BME280;28421;51.030;4.006;2023-12-20T08:24:19;101825.34;;;4.87;100.00
29417;BME280;28421;51.030;4.006;2023-12-20T08:26:45;101797.47;;;4.67;100.00
29417;BME280;28421;51.030;4.006;2023-12-20T08:29:13;101774.59;;;4.52;100.00
29417;BME280;28421;51.030;4.006;2023-12-20T08:31:39;101787.78;;;4.66;100.00
29417;BME280;28421;51.030;4.006;2023-12-20T08:34:04;101808.94;;;4.80;100.00
29417;BME280;28421;51.030;4.006;2023-12-20T08:36:30;101804.06;;;4.74;100.00
29417;BME280;28421;51.030;4.006;2023-12-20T08:38:55;101804.69;;;4.78;100.00
29417;BME280;28421;51.030;4.006;2023-12-20T08:41:21;101774.00;;;4.72;100.00
29417;BME280;28421;51.030;4.006;2023-12-20T08:43:46;101767.44;;;4.65;100.00
29417;BME280;28421;51.030;4.006;2023-12-20T08:46:13;101806.22;;;4.93;100.00
29417;BME280;28421;51.030;4.006;2023-12-20T08:48:38;101778.22;;;4.87;100.00
29417;BME280;28421;51.030;4.006;2023-12-20T08:51:04;101813.97;;;5.09;100.00
29417;BME280;28421;51.030;4.006;2023-12-20T08:53:32;101783.44;;;4.89;100.00
29417;BME280;28421;51.030;4.006;2023-12-20T08:55:58;101803.84;;;5.01;100.00
29417;BME280;28421;51.030;4.006;2023-12-20T08:58:26;101775.09;;;4.93;100.00
29417;BME280;28421;51.030;4.006;2023-12-20T09:00:52;101783.38;;;5.02;100.00
29417;BME280;28421;51.030;4.006;2023-12-20T09:03:17;101791.56;;;5.11;100.00
29417;BME280;28421;51.030;4.006;2023-12-20T09:05:43;101786.38;;;5.21;100.00
29417;BME280;28421;51.030;4.006;2023-12-20T09:08:08;101762.47;;;5.08;100.00
29417;BME280;28421;51.030;4.006;2023-12-20T09:10:36;101788.50;;;5.29;100.00
29417;BME280;28421;51.030;4.006;2023-12-20T09:13:02;101788.00;;;5.35;100.00
29417;BME280;28421;51.030;4.006;2023-12-20T09:15:29;101812.84;;;5.59;100.00
29417;BME280;28421;51.030;4.006;2023-12-20T09:17:55;101815.16;;;5.64;100.00
29417;BME280;28421;51.030;4.006;2023-12-20T09:20:21;101764.41;;;5.41;100.00
29417;BME280;28421;51.030;4.006;2023-12-20T09:22:48;101761.88;;;5.40;100.00
29417;BME280;28421;51.030;4.006;2023-12-20T09:25:14;101770.25;;;5.46;100.00
29417;BME280;28421;51.030;4.006;2023-12-20T09:27:41;101763.84;;;5.49;100.00
29417;BME280;28421;51.030;4.006;2023-12-20T09:30:07;101783.91;;;5.66;100.00
29417;BME280;28421;51.030;4.006;2023-12-20T09:32:32;101789.63;;;5.72;100.00
29417;BME280;28421;51.030;4.006;2023-12-20T09:34:58;101773.09;;;5.56;100.00
29417;BME280;28421;51.030;4.006;2023-12-20T09:37:27;101789.84;;;5.69;100.00
29417;BME280;28421;51.030;4.006;2023-12-20T09:39:53;101785.97;;;5.73;100.00
29417;BME280;28421;51.030;4.006;2023-12-20T09:42:24;101816.69;;;5.90;100.00
29417;BME280;28421;51.030;4.006;2023-12-20T09:44:53;101775.53;;;5.70;100.00
29417;BME280;28421;51.030;4.006;2023-12-20T09:47:20;101820.53;;;6.10;100.00
29417;BME280;28421;51.030;4.006;2023-12-20T09:49:48;101818.59;;;6.12;100.00
29417;BME280;28421;51.030;4.006;2023-12-20T09:52:15;101801.84;;;6.21;100.00
29417;BME280;28421;51.030;4.006;2023-12-20T09:54:42;101788.03;;;6.39;100.00
29417;BME280;28421;51.030;4.006;2023-12-20T09:57:09;101783.13;;;6.55;100.00
29417;BME280;28421;51.030;4.006;2023-12-20T09:59:35;101809.59;;;6.81;100.00
29417;BME280;28421;51.030;4.006;2023-12-20T10:02:01;101789.19;;;6.80;100.00
29417;BME280;28421;51.030;4.006;2023-12-20T10:04:31;101789.63;;;6.96;100.00
29417;BME280;28421;51.030;4.006;2023-12-20T10:07:02;101795.56;;;7.00;100.00
29417;BME280;28421;51.030;4.006;2023-12-20T10:09:32;101812.81;;;7.07;100.00
29417;BME280;28421;51.030;4.006;2023-12-20T10:11:59;101791.38;;;6.86;100.00
29417;BME280;28421;51.030;4.006;2023-12-20T10:14:25;101782.38;;;6.87;100.00
29417;BME280;28421;51.030;4.006;2023-12-20T10:16:50;101791.34;;;6.97;100.00
29417;BME280;28421;51.030;4.006;2023-12-20T10:19:17;101786.69;;;7.10;100.00
29417;BME280;28421;51.030;4.006;2023-12-20T10:21:43;101798.38;;;7.09;100.00
29417;BME280;28421;51.030;4.006;2023-12-20T10:24:16;101804.66;;;7.08;100.00
29417;BME280;28421;51.030;4.006;2023-12-20T10:26:42;101789.38;;;6.99;100.00
29417;BME280;28421;51.030;4.006;2023-12-20T10:29:07;101804.19;;;7.14;100.00
29417;BME280;28421;51.030;4.006;2023-12-20T10:31:33;101731.50;;;6.77;100.00
29417;BME280;28421;51.030;4.006;2023-12-20T10:34:01;101795.94;;;7.06;100.00
29417;BME280;28421;51.030;4.006;2023-12-20T10:36:28;101748.34;;;6.89;100.00
29417;BME280;28421;51.030;4.006;2023-12-20T10:38:55;101760.94;;;7.09;100.00
29417;BME280;28421;51.030;4.006;2023-12-20T10:41:28;101730.47;;;6.89;100.00
29417;BME280;28421;51.030;4.006;2023-12-20T10:43:58;101772.69;;;7.18;100.00
29417;BME280;28421;51.030;4.006;2023-12-20T10:46:24;101740.97;;;7.13;100.00
29417;BME280;28421;51.030;4.006;2023-12-20T10:48:53;101727.41;;;7.05;100.00
29417;BME280;28421;51.030;4.006;2023-12-20T10:51:20;101716.94;;;7.02;100.00
29417;BME280;28421;51.030;4.006;2023-12-20T10:53:47;101736.19;;;7.17;100.00
29417;BME280;28421;51.030;4.006;2023-12-20T10:56:16;101757.72;;;7.15;100.00
29417;BME280;28421;51.030;4.006;2023-12-20T10:58:43;101764.72;;;7.28;100.00
29417;BME280;28421;51.030;4.006;2023-12-20T11:01:09;101737.94;;;7.07;100.00
29417;BME280;28421;51.030;4.006;2023-12-20T11:03:36;101727.28;;;6.95;100.00
29417;BME280;28421;51.030;4.006;2023-12-20T11:06:10;101716.91;;;7.13;100.00
29417;BME280;28421;51.030;4.006;2023-12-20T11:09:06;101759.78;;;7.44;100.00
29417;BME280;28421;51.030;4.006;2023-12-20T11:12:46;101740.44;;;7.19;100.00
29417;BME280;28421;51.030;4.006;2023-12-20T11:14:50;101722.56;;;7.20;100.00
29417;BME280;28421;51.030;4.006;2023-12-20T11:17:16;101744.72;;;7.43;100.00
29417;BME280;28421;51.030;4.006;2023-12-20T11:22:29;101713.38;;;7.34;100.00
29417;BME280;28421;51.030;4.006;2023-12-20T11:25:02;101713.72;;;7.40;100.00
29417;BME280;28421;51.030;4.006;2023-12-20T11:27:30;101725.91;;;7.54;100.00
29417;BME280;28421;51.030;4.006;2023-12-20T11:29:57;101730.56;;;7.52;100.00
29417;BME280;28421;51.030;4.006;2023-12-20T11:37:37;101718.16;;;7.72;100.00
29417;BME280;28421;51.030;4.006;2023-12-20T11:40:07;101708.34;;;7.61;100.00
29417;BME280;28421;51.030;4.006;2023-12-20T11:42:49;101710.72;;;7.76;100.00
29417;BME280;28421;51.030;4.006;2023-12-20T11:45:17;101709.09;;;7.63;100.00
29417;BME280;28421;51.030;4.006;2023-12-20T11:47:46;101697.41;;;7.64;100.00
29417;BME280;28421;51.030;4.006;2023-12-20T11:50:12;101719.47;;;7.87;100.00
29417;BME280;28421;51.030;4.006;2023-12-20T11:52:38;101667.69;;;7.67;100.00
29417;BME280;28421;51.030;4.006;2023-12-20T11:55:04;101712.19;;;7.89;100.00
29417;BME280;28421;51.030;4.006;2023-12-20T11:57:30;101686.69;;;7.95;100.00
29417;BME280;28421;51.030;4.006;2023-12-20T11:59:56;101648.56;;;7.72;100.00
29417;BME280;28421;51.030;4.006;2023-12-20T12:02:22;101685.25;;;7.91;100.00
29417;BME280;28421;51.030;4.006;2023-12-20T12:04:49;101663.97;;;7.89;100.00
29417;BME280;28421;51.030;4.006;2023-12-20T12:07:16;101654.97;;;7.90;100.00
29417;BME280;28421;51.030;4.006;2023-12-20T12:09:42;101652.91;;;7.73;100.00
29417;BME280;28421;51.030;4.006;2023-12-20T12:12:08;101645.53;;;7.96;100.00
29417;BME280;28421;51.030;4.006;2023-12-20T12:14:34;101667.00;;;8.06;100.00
29417;BME280;28421;51.030;4.006;2023-12-20T12:17:02;101654.69;;;7.93;100.00
29417;BME280;28421;51.030;4.006;2023-12-20T12:19:28;101664.81;;;7.90;100.00
29417;BME280;28421;51.030;4.006;2023-12-20T12:22:15;101666.25;;;7.94;100.00
29417;BME280;28421;51.030;4.006;2023-12-20T12:24:44;101625.97;;;7.65;100.00
29417;BME280;28421;51.030;4.006;2023-12-20T12:27:13;101688.25;;;7.97;100.00
29417;BME280;28421;51.030;4.006;2023-12-20T12:29:39;101647.72;;;7.71;100.00
29417;BME280;28421;51.030;4.006;2023-12-20T12:32:08;101676.19;;;7.82;100.00
29417;BME280;28421;51.030;4.006;2023-12-20T12:34:35;101642.72;;;7.67;100.00
29417;BME280;28421;51.030;4.006;2023-12-20T12:37:02;101645.41;;;7.67;100.00
29417;BME280;28421;51.030;4.006;2023-12-20T12:39:29;101657.41;;;8.03;100.00
29417;BME280;28421;51.030;4.006;2023-12-20T12:41:55;101647.53;;;8.04;100.00
29417;BME280;28421;51.030;4.006;2023-12-20T12:44:22;101632.03;;;8.07;100.00
29417;BME280;28421;51.030;4.006;2023-12-20T12:46:50;101610.88;;;8.04;100.00
29417;BME280;28421;51.030;4.006;2023-12-20T12:49:16;101613.88;;;8.11;100.00
29417;BME280;28421;51.030;4.006;2023-12-20T12:51:43;101614.88;;;8.29;100.00
29417;BME280;28421;51.030;4.006;2023-12-20T12:54:09;101651.47;;;8.50;100.00